Time;durP1;ratioP1;P1;durP2;ratioP2;P2;SDS_P1;SDS_P2;PMS_P1;PMS_P2;Temp;Humidity;BMP_temperature;BMP_pressure;BME280_temperature;BME280_humidity;BME280_pressure;Samples;Min_cycle;Max_cycle;Signal;HPM_P1;HPM_P2
2021/01/21 00:01:34;;;;;;;6.68;3.30;;;8.20;98.70;;;;;;5035642;28;20814;-79
2021/01/21 00:04:01;;;;;;;6.35;3.17;;;8.10;98.50;;;;;;5035035;28;20199;-79
2021/01/21 00:06:27;;;;;;;7.53;3.50;;;8.30;98.50;;;;;;5035456;28;20227;-79
2021/01/21 00:08:54;;;;;;;5.30;3.30;;;8.10;98.20;;;;;;5036132;28;20485;-79
2021/01/21 00:11:20;;;;;;;6.30;3.47;;;8.30;98.40;;;;;;5037439;28;20425;-79
2021/01/21 00:13:48;;;;;;;6.00;3.67;;;8.10;98.30;;;;;;5036101;28;20833;-79
2021/01/21 00:16:14;;;;;;;6.28;3.50;;;8.00;98.20;;;;;;5035970;28;20245;-80
2021/01/21 00:18:41;;;;;;;6.45;3.50;;;8.20;98.50;;;;;;5039424;28;20234;-79
2021/01/21 00:21:07;;;;;;;6.90;3.35;;;8.20;98.50;;;;;;5036538;28;20592;-79
2021/01/21 00:23:34;;;;;;;7.25;3.75;;;7.90;98.50;;;;;;5035918;28;20211;-79
2021/01/21 00:26:01;;;;;;;5.00;3.28;;;8.10;99.00;;;;;;5034571;28;20673;-79
2021/01/21 00:28:27;;;;;;;6.38;3.30;;;7.90;99.10;;;;;;5035092;28;20612;-79
2021/01/21 00:30:55;;;;;;;6.15;4.00;;;7.80;99.20;;;;;;5036011;28;20231;-79
2021/01/21 00:33:21;;;;;;;6.15;3.80;;;8.00;99.10;;;;;;5036026;28;20199;-79
2021/01/21 00:35:48;;;;;;;7.07;4.00;;;8.10;99.30;;;;;;5035578;28;20230;-79
2021/01/21 00:38:14;;;;;;;8.27;4.45;;;7.90;99.40;;;;;;5036140;28;20306;-79
2021/01/21 00:40:41;;;;;;;7.97;4.15;;;8.00;99.60;;;;;;5035202;28;20211;-79
2021/01/21 00:43:07;;;;;;;8.93;4.03;;;8.00;99.50;;;;;;5039740;28;20288;-79
2021/01/21 00:45:34;;;;;;;7.43;4.68;;;7.80;99.30;;;;;;5036081;28;20218;-79
2021/01/21 00:48:01;;;;;;;8.55;5.72;;;8.00;99.60;;;;;;5032587;28;20326;-79
2021/01/21 00:50:28;;;;;;;7.50;4.60;;;8.10;99.80;;;;;;5031876;28;20260;-79
2021/01/21 00:52:54;;;;;;;7.85;4.15;;;7.90;99.60;;;;;;5031865;28;20218;-79
2021/01/21 00:55:21;;;;;;;8.25;4.25;;;8.10;99.80;;;;;;5036676;28;20213;-79
2021/01/21 00:57:48;;;;;;;8.95;4.55;;;7.90;99.90;;;;;;5031473;28;20238;-79
2021/01/21 01:00:15;;;;;;;8.15;4.40;;;8.10;99.90;;;;;;5033771;28;20214;-79
2021/01/21 01:02:41;;;;;;;6.05;4.10;;;7.90;99.90;;;;;;5033882;28;20230;-79
2021/01/21 01:05:11;;;;;;;10.10;3.58;;;7.70;99.90;;;;;;5031785;28;20219;-79
2021/01/21 01:07:37;;;;;;;9.35;3.88;;;7.70;99.90;;;;;;5031879;28;20231;-79
2021/01/21 01:10:04;;;;;;;5.80;3.47;;;7.50;99.90;;;;;;5033007;28;20219;-79
2021/01/21 01:12:31;;;;;;;6.55;4.00;;;7.60;99.90;;;;;;5032812;28;20211;-79
2021/01/21 01:14:57;;;;;;;5.72;3.10;;;7.50;99.90;;;;;;5034431;28;20207;-78
2021/01/21 01:17:24;;;;;;;9.80;3.50;;;7.70;99.90;;;;;;5032925;28;20250;-79
2021/01/21 01:19:50;;;;;;;6.35;3.85;;;7.90;99.90;;;;;;5033010;28;20203;-79
2021/01/21 01:22:18;;;;;;;6.25;3.75;;;7.70;99.90;;;;;;5013241;28;20218;-79
2021/01/21 01:24:44;;;;;;;6.80;4.38;;;7.70;99.90;;;;;;5019565;28;20231;-79
2021/01/21 01:27:11;;;;;;;6.18;3.83;;;7.60;99.90;;;;;;5032508;28;20281;-79
2021/01/21 01:29:38;;;;;;;6.85;3.55;;;7.50;99.90;;;;;;5034614;28;20208;-79
2021/01/21 01:32:05;;;;;;;6.07;3.60;;;7.50;99.90;;;;;;5032511;28;20229;-79
2021/01/21 01:34:31;;;;;;;6.90;3.72;;;7.40;99.90;;;;;;5031363;28;20305;-78
2021/01/21 01:36:58;;;;;;;6.55;3.40;;;7.60;99.90;;;;;;5030164;28;20229;-78
2021/01/21 01:39:25;;;;;;;6.32;3.40;;;7.40;99.90;;;;;;5030111;28;20214;-77
2021/01/21 01:41:52;;;;;;;6.75;3.65;;;7.50;99.90;;;;;;5030863;28;20261;-78
2021/01/21 01:44:18;;;;;;;5.40;3.20;;;7.50;99.90;;;;;;5029880;28;20650;-78
2021/01/21 01:46:45;;;;;;;6.40;3.30;;;7.30;99.90;;;;;;5029998;28;20223;-78
2021/01/21 01:49:12;;;;;;;6.88;3.00;;;7.30;99.90;;;;;;5029668;28;20282;-78
2021/01/21 01:51:43;;;;;;;5.93;2.78;;;7.30;99.90;;;;;;5030579;28;20212;-78
2021/01/21 01:54:10;;;;;;;6.35;3.15;;;7.20;99.90;;;;;;5030402;28;20241;-78
2021/01/21 01:56:38;;;;;;;7.28;2.90;;;7.50;99.90;;;;;;5031269;28;20215;-78
2021/01/21 01:59:05;;;;;;;6.28;2.80;;;7.40;99.90;;;;;;5030079;28;20215;-78
2021/01/21 02:01:34;;;;;;;6.05;2.70;;;7.50;99.90;;;;;;5033957;28;20203;-78
2021/01/21 02:04:00;;;;;;;4.55;2.45;;;7.50;99.90;;;;;;5034205;28;20294;-78
2021/01/21 02:06:27;;;;;;;6.65;2.97;;;7.40;99.90;;;;;;5036951;28;20223;-79
2021/01/21 02:08:54;;;;;;;5.93;2.92;;;7.50;99.90;;;;;;5033468;28;20238;-79
2021/01/21 02:11:33;;;;;;;6.03;2.78;;;7.70;99.90;;;;;;5032896;28;20229;-79
2021/01/21 02:14:03;;;;;;;5.95;2.70;;;7.70;99.90;;;;;;5032456;28;20203;-79
2021/01/21 02:16:43;;;;;;;4.68;2.65;;;7.60;99.90;;;;;;5030006;28;20210;-79
2021/01/21 02:19:44;;;;;;;6.85;2.20;;;7.90;99.90;;;;;;5032156;28;20222;-79
2021/01/21 02:22:41;;;;;;;6.88;2.40;;;8.00;99.80;;;;;;5025729;28;20200;-79
2021/01/21 02:25:14;;;;;;;4.70;2.28;;;8.20;99.40;;;;;;5011380;28;20322;-79
2021/01/21 02:28:15;;;;;;;5.45;2.60;;;8.20;99.00;;;;;;5032177;28;20227;-79
2021/01/21 02:30:59;;;;;;;4.03;1.85;;;8.40;98.90;;;;;;5030795;28;20630;-79
2021/01/21 02:33:46;;;;;;;4.18;1.98;;;8.50;97.90;;;;;;5029133;28;20207;-78
2021/01/21 02:36:18;;;;;;;4.20;1.80;;;8.60;97.40;;;;;;5009865;28;20266;-78
2021/01/21 02:38:45;;;;;;;4.88;2.08;;;8.50;97.00;;;;;;5021388;28;20230;-79
2021/01/21 02:41:14;;;;;;;4.40;2.30;;;8.60;96.70;;;;;;5028228;28;20284;-78
2021/01/21 02:43:40;;;;;;;5.50;2.60;;;8.80;96.20;;;;;;5029089;28;20507;-78
2021/01/21 02:46:07;;;;;;;4.80;2.10;;;8.80;96.20;;;;;;5031049;28;20953;-79
2021/01/21 02:48:35;;;;;;;5.47;1.80;;;9.00;96.20;;;;;;5029048;28;20453;-78
2021/01/21 02:51:07;;;;;;;3.57;1.70;;;9.00;96.10;;;;;;5029779;28;20433;-78
2021/01/21 02:53:38;;;;;;;4.67;2.00;;;8.80;96.20;;;;;;5030150;28;20465;-79
2021/01/21 02:56:09;;;;;;;3.43;1.60;;;9.20;96.50;;;;;;5029264;28;20486;-78
2021/01/21 02:58:42;;;;;;;4.60;2.43;;;9.00;96.60;;;;;;5035594;28;20482;-78
2021/01/21 03:01:10;;;;;;;4.87;1.83;;;9.00;96.80;;;;;;5031589;28;20442;-79
2021/01/21 03:03:39;;;;;;;4.80;2.63;;;9.00;96.70;;;;;;5033036;28;20457;-79
2021/01/21 03:06:08;;;;;;;4.00;1.93;;;9.10;96.70;;;;;;5032356;28;20227;-78
2021/01/21 03:08:35;;;;;;;3.33;1.57;;;9.00;96.60;;;;;;5029120;28;20484;-78
2021/01/21 03:11:09;;;;;;;3.23;1.43;;;9.00;96.40;;;;;;5028818;28;20972;-78
2021/01/21 03:16:58;;;;;;;3.00;1.30;;;9.30;93.90;;;;;;5037227;28;20923;-79
2021/01/21 03:19:24;;;;;;;3.27;1.13;;;9.20;92.30;;;;;;5034359;28;20211;-76
2021/01/21 04:16:06;;;;;;;3.27;1.23;;;9.30;90.90;;;;;;5027634;28;20992;-78
2021/01/21 04:18:32;;;;;;;4.28;1.40;;;9.50;91.00;;;;;;5030454;28;20481;-78
2021/01/21 04:20:59;;;;;;;4.05;1.15;;;9.60;91.20;;;;;;5031265;28;20212;-77
2021/01/21 04:23:26;;;;;;;2.85;1.52;;;9.50;90.90;;;;;;5030864;28;20273;-77
2021/01/21 04:25:52;;;;;;;4.30;1.60;;;9.70;91.20;;;;;;5030710;28;20234;-78
2021/01/21 04:28:19;;;;;;;2.90;1.20;;;9.50;91.40;;;;;;5030852;28;20607;-77
2021/01/21 04:30:46;;;;;;;3.45;1.48;;;9.50;91.50;;;;;;5031574;28;20476;-77
2021/01/21 04:33:13;;;;;;;6.23;1.57;;;9.10;91.40;;;;;;5030330;28;20203;-77
2021/01/21 04:35:40;;;;;;;3.70;1.50;;;9.30;91.40;;;;;;5031114;28;20454;-77
2021/01/21 04:38:06;;;;;;;3.10;1.40;;;9.30;91.50;;;;;;5030056;28;20473;-77
2021/01/21 04:40:33;;;;;;;4.45;1.58;;;9.30;91.60;;;;;;5030402;28;20469;-77
2021/01/21 04:42:59;;;;;;;3.90;1.30;;;9.20;91.70;;;;;;5030623;28;20207;-77
2021/01/21 04:45:26;;;;;;;4.45;1.20;;;9.20;91.80;;;;;;5030801;28;20456;-77
2021/01/21 04:47:54;;;;;;;4.30;1.60;;;9.20;91.80;;;;;;5030217;28;20223;-77
2021/01/21 04:50:22;;;;;;;3.53;1.13;;;9.50;92.00;;;;;;5030802;28;20265;-77
2021/01/21 04:52:52;;;;;;;4.28;1.40;;;9.20;92.00;;;;;;5030213;28;20458;-77
2021/01/21 04:55:22;;;;;;;3.45;1.58;;;9.20;91.90;;;;;;5011014;28;20204;-77
2021/01/21 04:57:53;;;;;;;3.85;1.05;;;9.40;92.00;;;;;;5026049;28;20575;-77
2021/01/21 05:00:22;;;;;;;6.10;1.50;;;9.30;92.10;;;;;;5030768;28;20292;-77
2021/01/21 05:02:50;;;;;;;4.37;1.30;;;9.20;92.10;;;;;;5030387;28;20454;-77
2021/01/21 05:05:17;;;;;;;3.57;1.17;;;9.20;92.00;;;;;;5010920;28;20504;-77
2021/01/21 05:07:44;;;;;;;3.95;1.30;;;9.20;92.10;;;;;;5024571;28;20560;-77
2021/01/21 05:10:13;;;;;;;3.67;1.30;;;9.20;91.90;;;;;;5030351;28;20211;-77
2021/01/21 05:12:40;;;;;;;5.05;1.50;;;9.20;91.90;;;;;;5030618;28;20557;-77
2021/01/21 05:15:08;;;;;;;3.20;1.20;;;9.50;92.10;;;;;;5048928;28;20244;-78
2021/01/21 05:17:34;;;;;;;2.73;1.00;;;9.40;91.80;;;;;;5036404;28;20485;-77
2021/01/21 05:20:02;;;;;;;5.83;1.50;;;9.50;91.70;;;;;;5030180;28;20473;-77
2021/01/21 05:22:29;;;;;;;4.40;1.30;;;9.50;91.60;;;;;;5032515;28;20446;-77
2021/01/21 05:24:56;;;;;;;8.10;1.73;;;9.60;91.60;;;;;;5043037;28;20504;-78
2021/01/21 05:27:23;;;;;;;7.50;1.50;;;9.60;91.50;;;;;;5052318;28;20601;-78
2021/01/21 05:29:50;;;;;;;4.57;1.30;;;9.50;91.00;;;;;;5046881;28;20450;-78
2021/01/21 05:32:19;;;;;;;4.00;1.10;;;9.60;90.90;;;;;;5035368;28;20256;-78
2021/01/21 05:34:46;;;;;;;3.40;1.30;;;9.60;90.70;;;;;;5036294;28;20450;-77
2021/01/21 05:37:14;;;;;;;5.47;1.37;;;9.40;90.50;;;;;;5034183;28;20448;-77
2021/01/21 05:39:42;;;;;;;4.67;1.20;;;9.70;90.60;;;;;;5031189;28;20457;-77
2021/01/21 05:42:11;;;;;;;2.90;1.17;;;9.60;90.50;;;;;;5049704;28;20461;-78
2021/01/21 05:44:38;;;;;;;8.47;1.50;;;9.90;90.40;;;;;;5050954;28;20991;-77
2021/01/21 05:47:05;;;;;;;4.37;1.33;;;9.90;90.40;;;;;;5046999;28;20839;-78
2021/01/21 05:49:32;;;;;;;3.30;1.10;;;9.90;90.30;;;;;;5051877;28;20432;-78
2021/01/21 05:51:59;;;;;;;3.10;1.00;;;9.80;89.30;;;;;;5032864;28;20492;-78
2021/01/21 05:54:27;;;;;;;2.60;0.87;;;10.00;88.50;;;;;;5031906;28;20462;-78
2021/01/21 05:56:55;;;;;;;5.30;1.07;;;10.10;88.20;;;;;;5031843;28;20450;-78
2021/01/21 05:59:23;;;;;;;3.20;1.20;;;10.10;87.50;;;;;;5014804;28;20539;-77
2021/01/21 06:01:51;;;;;;;3.50;0.70;;;10.10;87.60;;;;;;5032054;28;20458;-77
2021/01/21 06:04:19;;;;;;;4.10;1.30;;;10.20;87.10;;;;;;5029215;28;20458;-78
2021/01/21 06:06:46;;;;;;;4.97;1.13;;;10.30;87.00;;;;;;5028840;28;20531;-77
2021/01/21 06:09:15;;;;;;;3.47;1.20;;;10.30;86.20;;;;;;5029480;28;20455;-76
2021/01/21 06:11:43;;;;;;;4.40;1.30;;;10.40;86.10;;;;;;5029367;28;20462;-78
2021/01/21 06:14:11;;;;;;;2.77;1.10;;;10.40;85.80;;;;;;5029291;28;20544;-76
2021/01/21 06:16:39;;;;;;;12.03;2.03;;;10.40;85.20;;;;;;5029541;28;20942;-78
2021/01/21 06:19:05;;;;;;;5.03;1.00;;;10.40;85.10;;;;;;5036059;28;20534;-78
2021/01/21 06:21:35;;;;;;;4.20;1.30;;;10.40;85.00;;;;;;5032405;28;20450;-77
2021/01/21 06:24:04;;;;;;;4.70;1.30;;;10.50;84.80;;;;;;5029466;28;20485;-77
2021/01/21 06:26:40;;;;;;;7.43;1.17;;;10.50;84.60;;;;;;5029147;28;20518;-77
2021/01/21 06:29:08;;;;;;;3.03;1.10;;;10.50;84.50;;;;;;5033776;28;20468;-77
2021/01/21 06:31:38;;;;;;;2.60;1.10;;;10.50;84.10;;;;;;5033433;28;20788;-78
2021/01/21 06:34:08;;;;;;;4.20;1.10;;;10.50;83.90;;;;;;5031665;28;20591;-78
2021/01/21 06:36:41;;;;;;;3.87;1.20;;;10.50;83.80;;;;;;5032664;28;20534;-77
2021/01/21 06:39:14;;;;;;;2.87;1.00;;;10.60;84.10;;;;;;5032440;28;20553;-78
2021/01/21 06:41:45;;;;;;;4.70;1.10;;;10.60;84.00;;;;;;5031018;28;20472;-77
2021/01/21 06:44:15;;;;;;;2.90;1.00;;;10.50;83.90;;;;;;5030752;28;20481;-77
2021/01/21 06:46:46;;;;;;;2.60;1.00;;;10.50;84.00;;;;;;5032039;28;20496;-78
2021/01/21 06:49:14;;;;;;;4.83;1.00;;;10.60;84.00;;;;;;5048314;28;20499;-77
2021/01/21 06:51:46;;;;;;;2.93;1.00;;;10.60;84.00;;;;;;5034272;28;20486;-77
2021/01/21 06:54:14;;;;;;;5.47;1.07;;;10.60;84.40;;;;;;5033528;28;20450;-77
2021/01/21 06:56:41;;;;;;;3.83;1.30;;;10.70;84.50;;;;;;5032568;28;20437;-77
2021/01/21 06:59:07;;;;;;;4.30;1.67;;;10.70;84.90;;;;;;5032645;28;20506;-77
2021/01/21 07:01:49;;;;;;;4.90;1.00;;;10.70;85.20;;;;;;5032451;28;20518;-77
2021/01/21 07:04:24;;;;;;;8.40;1.30;;;10.70;85.60;;;;;;5032884;28;20424;-77
2021/01/21 07:07:13;;;;;;;2.77;1.10;;;10.80;86.30;;;;;;5032562;28;20481;-77
2021/01/21 07:09:41;;;;;;;3.40;1.60;;;10.90;87.40;;;;;;5013438;28;20439;-77
2021/01/21 07:12:14;;;;;;;2.63;1.10;;;10.90;88.20;;;;;;5031967;28;20464;-78
2021/01/21 07:14:42;;;;;;;3.13;1.10;;;10.90;89.50;;;;;;5036860;28;20466;-78
2021/01/21 07:17:09;;;;;;;2.50;1.00;;;10.90;90.50;;;;;;5036253;28;20470;-76
2021/01/21 07:19:37;;;;;;;6.00;1.23;;;10.90;91.20;;;;;;5043540;28;20461;-78
2021/01/21 07:22:20;;;;;;;3.37;0.83;;;10.90;91.80;;;;;;5035735;28;20469;-77
2021/01/21 07:24:59;;;;;;;2.60;0.90;;;10.80;92.50;;;;;;5035681;28;20477;-78
2021/01/21 07:27:27;;;;;;;2.80;1.00;;;10.80;93.00;;;;;;5037136;28;20794;-78
2021/01/21 07:30:15;;;;;;;3.43;1.10;;;10.80;93.50;;;;;;5037229;28;20521;-78
2021/01/21 07:32:43;;;;;;;3.63;1.10;;;10.80;94.10;;;;;;5036951;28;20498;-78
2021/01/21 07:35:35;;;;;;;2.70;1.17;;;10.80;94.70;;;;;;5044260;28;20454;-78
2021/01/21 07:38:03;;;;;;;2.73;1.20;;;10.80;95.00;;;;;;5046241;28;20448;-78
2021/01/21 07:40:50;;;;;;;3.90;1.10;;;10.80;95.10;;;;;;5055616;28;20470;-78
2021/01/21 07:43:16;;;;;;;2.40;0.83;;;10.80;95.40;;;;;;5035913;28;20506;-78
2021/01/21 07:45:46;;;;;;;3.00;1.30;;;10.80;95.70;;;;;;5043830;28;20489;-78
2021/01/21 07:48:22;;;;;;;3.00;1.13;;;10.80;95.80;;;;;;5038779;28;20478;-78
2021/01/21 07:50:49;;;;;;;3.17;1.00;;;10.80;95.80;;;;;;5038975;28;20823;-78
2021/01/21 07:53:23;;;;;;;3.60;1.40;;;10.90;95.90;;;;;;5034935;28;20997;-78
2021/01/21 07:55:52;;;;;;;5.20;0.80;;;11.00;95.80;;;;;;5037337;28;20445;-78
2021/01/21 07:58:30;;;;;;;2.20;0.73;;;11.00;95.80;;;;;;5055374;28;20481;-78
2021/01/21 08:01:01;;;;;;;2.90;1.10;;;11.00;95.70;;;;;;5053651;28;20949;-78
2021/01/21 08:03:36;;;;;;;2.70;0.93;;;11.10;95.70;;;;;;5013612;28;20455;-78
2021/01/21 08:06:07;;;;;;;3.90;1.47;;;11.00;95.60;;;;;;5031532;28;20473;-78
2021/01/21 08:08:34;;;;;;;2.80;1.10;;;11.00;95.70;;;;;;5041200;28;21026;-77
2021/01/21 08:11:02;;;;;;;3.43;1.10;;;11.00;95.90;;;;;;5034774;28;20469;-78
2021/01/21 08:13:29;;;;;;;2.40;0.80;;;11.00;95.80;;;;;;5035471;28;20497;-77
2021/01/21 08:15:56;;;;;;;2.90;1.00;;;11.10;95.90;;;;;;5036301;28;20497;-78
2021/01/21 08:18:23;;;;;;;4.30;1.97;;;11.10;95.80;;;;;;5044018;28;20468;-78
2021/01/21 08:20:52;;;;;;;2.80;0.97;;;11.10;95.90;;;;;;5034629;28;20523;-78
2021/01/21 08:23:18;;;;;;;4.20;1.23;;;11.20;95.90;;;;;;5036070;28;20424;-78
2021/01/21 08:25:46;;;;;;;2.50;1.00;;;11.20;95.90;;;;;;5035696;28;20462;-78
2021/01/21 08:28:16;;;;;;;5.03;1.20;;;11.30;95.90;;;;;;5055492;28;20473;-79
2021/01/21 08:30:44;;;;;;;4.23;1.90;;;11.30;95.80;;;;;;5047105;28;20457;-78
2021/01/21 08:33:13;;;;;;;3.70;1.20;;;11.40;95.90;;;;;;5034560;28;20443;-79
2021/01/21 08:35:46;;;;;;;7.67;1.03;;;11.50;95.90;;;;;;5033629;28;20482;-78
2021/01/21 08:38:16;;;;;;;4.00;1.47;;;11.40;95.90;;;;;;5036391;28;20540;-76
2021/01/21 08:40:44;;;;;;;2.80;1.27;;;11.40;96.10;;;;;;5032446;28;20454;-77
2021/01/21 08:43:11;;;;;;;3.47;1.33;;;11.50;96.20;;;;;;5033340;28;20446;-77
2021/01/21 08:45:38;;;;;;;2.60;0.80;;;11.50;96.80;;;;;;5033499;28;20504;-77
2021/01/21 08:48:06;;;;;;;4.07;1.20;;;11.50;96.40;;;;;;5033127;28;20486;-77
2021/01/21 08:50:39;;;;;;;2.87;0.83;;;11.60;96.50;;;;;;5033290;28;20432;-78
2021/01/21 08:53:09;;;;;;;4.10;0.93;;;11.60;96.60;;;;;;5033738;28;20442;-77
2021/01/21 08:55:39;;;;;;;3.57;0.90;;;11.60;96.60;;;;;;5031176;28;20519;-77
2021/01/21 08:58:06;;;;;;;3.33;0.80;;;11.50;96.60;;;;;;5051279;28;20485;-79
2021/01/21 09:00:34;;;;;;;2.60;0.87;;;11.50;96.70;;;;;;5035861;28;20457;-78
2021/01/21 09:03:02;;;;;;;4.70;1.30;;;11.50;96.60;;;;;;5031521;28;20432;-77
2021/01/21 09:05:31;;;;;;;3.57;1.13;;;11.50;96.60;;;;;;5032134;28;20481;-79
2021/01/21 09:08:08;;;;;;;5.47;1.40;;;11.50;96.50;;;;;;5032387;28;20460;-77
2021/01/21 09:10:44;;;;;;;3.80;1.50;;;11.60;96.60;;;;;;5031041;28;20468;-77
2021/01/21 09:13:11;;;;;;;3.33;1.20;;;11.60;96.50;;;;;;5030972;28;20452;-78
2021/01/21 09:15:56;;;;;;;5.20;2.40;;;11.60;96.30;;;;;;5033265;28;20920;-76
2021/01/21 09:18:24;;;;;;;7.53;1.17;;;11.70;96.30;;;;;;5025949;28;20529;-78
2021/01/21 09:21:10;;;;;;;3.10;1.00;;;11.80;96.20;;;;;;5033270;28;20812;-77
2021/01/21 09:23:37;;;;;;;4.13;1.17;;;11.80;96.20;;;;;;5037988;28;20450;-78
2021/01/21 09:26:12;;;;;;;2.40;0.90;;;11.90;96.20;;;;;;5039627;28;20456;-78
2021/01/21 09:28:52;;;;;;;4.33;1.83;;;12.00;96.10;;;;;;5041582;28;20528;-79
2021/01/21 09:31:22;;;;;;;2.30;0.83;;;12.00;96.30;;;;;;5031158;28;20450;-78
2021/01/21 09:33:52;;;;;;;3.90;1.10;;;12.00;96.20;;;;;;5031247;28;20433;-77
2021/01/21 09:36:25;;;;;;;4.40;1.00;;;12.10;96.30;;;;;;5032414;28;20417;-78
2021/01/21 09:38:52;;;;;;;3.73;1.00;;;12.00;96.30;;;;;;5013965;28;20445;-78
2021/01/21 09:41:22;;;;;;;2.73;1.03;;;12.00;96.60;;;;;;5028217;28;20454;-78
2021/01/21 09:43:49;;;;;;;2.60;1.00;;;12.00;96.70;;;;;;5033641;28;20417;-77
2021/01/21 09:46:16;;;;;;;2.50;0.80;;;12.00;96.70;;;;;;5049277;28;20489;-78
2021/01/21 09:48:43;;;;;;;3.70;1.20;;;12.00;96.70;;;;;;5040245;28;20945;-79
2021/01/21 09:51:09;;;;;;;4.50;1.27;;;12.00;96.80;;;;;;5035033;28;20947;-79
2021/01/21 09:53:36;;;;;;;4.33;1.40;;;11.90;97.00;;;;;;5035664;28;20457;-79
2021/01/21 09:56:03;;;;;;;4.30;2.37;;;11.90;97.10;;;;;;5036069;28;20450;-78
2021/01/21 09:58:30;;;;;;;3.63;1.30;;;12.00;97.10;;;;;;5036181;28;20461;-79
2021/01/21 10:00:57;;;;;;;3.80;1.27;;;12.10;97.10;;;;;;5033666;28;20450;-78
2021/01/21 10:03:24;;;;;;;6.60;1.13;;;12.20;97.00;;;;;;5034766;28;20898;-78
2021/01/21 10:05:51;;;;;;;3.10;1.03;;;12.30;96.90;;;;;;5047357;28;20465;-79
2021/01/21 10:08:17;;;;;;;3.00;1.10;;;12.40;96.80;;;;;;5040789;28;20779;-77
2021/01/21 10:10:44;;;;;;;3.40;1.00;;;12.40;96.80;;;;;;5041711;28;20435;-78
2021/01/21 10:13:11;;;;;;;3.40;1.00;;;12.40;96.80;;;;;;5042350;28;20433;-78
2021/01/21 10:15:38;;;;;;;4.80;0.80;;;12.50;97.20;;;;;;5042768;28;20468;-79
2021/01/21 10:18:05;;;;;;;5.30;1.17;;;12.40;96.80;;;;;;5035655;28;20570;-78
2021/01/21 10:20:47;;;;;;;4.40;1.00;;;12.50;96.90;;;;;;5036455;28;20424;-78
2021/01/21 10:23:14;;;;;;;4.47;0.90;;;12.50;96.80;;;;;;5031006;28;20440;-78
2021/01/21 10:25:40;;;;;;;3.77;1.17;;;12.60;96.70;;;;;;5029423;28;20516;-78
2021/01/21 10:28:06;;;;;;;2.70;1.10;;;12.70;96.60;;;;;;5029710;28;20488;-76
2021/01/21 10:30:33;;;;;;;4.10;1.30;;;12.70;96.50;;;;;;5033397;28;20477;-79
2021/01/21 10:33:00;;;;;;;2.57;0.80;;;12.80;96.40;;;;;;5034049;28;20850;-79
2021/01/21 10:35:27;;;;;;;2.40;0.80;;;12.90;96.30;;;;;;5043177;28;20810;-79
2021/01/21 10:37:54;;;;;;;3.83;1.23;;;12.90;96.40;;;;;;5039087;28;20478;-79
2021/01/21 10:40:20;;;;;;;2.70;1.00;;;13.00;96.50;;;;;;5039007;28;20501;-80
2021/01/21 10:42:47;;;;;;;2.53;0.87;;;13.00;96.50;;;;;;5029178;28;20484;-74
2021/01/21 10:45:13;;;;;;;2.90;1.10;;;13.00;96.40;;;;;;5029451;28;20960;-75
2021/01/21 10:47:40;;;;;;;3.13;1.00;;;13.00;96.30;;;;;;5032290;28;20470;-77
2021/01/21 10:50:09;;;;;;;3.00;1.10;;;13.10;96.30;;;;;;5030293;28;20425;-78
2021/01/21 10:52:35;;;;;;;3.03;1.00;;;13.10;96.30;;;;;;5030934;28;20468;-77
2021/01/21 10:55:02;;;;;;;4.83;1.67;;;13.10;96.20;;;;;;5032046;28;20867;-78
2021/01/21 10:57:29;;;;;;;4.30;1.37;;;13.10;96.80;;;;;;5030277;28;20542;-78
2021/01/21 10:59:56;;;;;;;3.23;1.13;;;13.10;97.40;;;;;;5030503;28;20490;-75
2021/01/21 11:02:22;;;;;;;3.10;1.10;;;13.20;97.40;;;;;;5029469;28;20420;-75
2021/01/21 11:04:49;;;;;;;3.07;1.53;;;13.20;97.80;;;;;;5030884;28;20457;-77
2021/01/21 11:07:16;;;;;;;4.53;1.37;;;13.20;97.70;;;;;;5037515;28;20467;-80
2021/01/21 11:09:43;;;;;;;3.53;1.07;;;13.20;97.80;;;;;;5042247;28;20461;-80
2021/01/21 11:12:10;;;;;;;4.50;2.23;;;13.20;97.60;;;;;;5039416;28;20457;-79
2021/01/21 11:14:37;;;;;;;2.83;1.00;;;13.30;97.70;;;;;;5037818;28;20682;-78
2021/01/21 11:17:04;;;;;;;3.90;1.23;;;13.40;97.60;;;;;;5038618;28;20478;-80
2021/01/21 11:19:30;;;;;;;3.10;1.03;;;13.50;97.60;;;;;;5038203;28;20452;-79
2021/01/21 11:21:57;;;;;;;2.53;1.03;;;13.60;97.30;;;;;;5036891;28;20926;-79
2021/01/21 11:24:24;;;;;;;3.83;1.43;;;13.60;97.00;;;;;;5034119;28;20450;-79
2021/01/21 11:26:51;;;;;;;2.90;1.10;;;13.50;97.50;;;;;;5033521;28;20484;-79
2021/01/21 11:29:18;;;;;;;3.17;1.00;;;13.30;97.30;;;;;;5032754;28;20939;-76
2021/01/21 11:31:44;;;;;;;4.30;1.10;;;13.20;97.60;;;;;;5028894;28;20823;-76
2021/01/21 11:34:11;;;;;;;2.83;1.10;;;13.20;97.80;;;;;;5029176;28;20463;-76
2021/01/21 11:36:37;;;;;;;4.70;1.40;;;13.30;97.90;;;;;;5032516;28;20420;-83
2021/01/21 11:39:04;;;;;;;2.60;1.00;;;13.40;97.70;;;;;;5037928;28;20837;-81
2021/01/21 11:41:32;;;;;;;3.40;1.40;;;13.40;97.10;;;;;;5036693;28;20868;-80
2021/01/21 11:43:58;;;;;;;4.60;1.20;;;13.30;96.90;;;;;;5042974;28;20453;-80
2021/01/21 11:46:25;;;;;;;3.10;1.20;;;13.40;97.00;;;;;;5040587;28;20550;-75
2021/01/21 11:48:53;;;;;;;2.97;1.10;;;13.40;96.90;;;;;;5032922;28;20444;-76
2021/01/21 11:51:19;;;;;;;2.80;1.20;;;13.50;96.80;;;;;;5033359;28;20890;-76
2021/01/21 11:53:46;;;;;;;3.70;1.10;;;13.40;96.80;;;;;;5034893;28;20529;-76
2021/01/21 11:56:13;;;;;;;5.57;2.20;;;13.40;96.70;;;;;;5035770;28;20478;-76
2021/01/21 11:58:44;;;;;;;9.90;1.67;;;13.50;96.70;;;;;;5035190;28;20505;-88
2021/01/21 12:01:11;;;;;;;6.60;1.70;;;13.40;96.80;;;;;;5039104;28;20497;-76
2021/01/21 12:03:37;;;;;;;5.77;1.60;;;13.50;96.30;;;;;;5033281;28;20428;-76
2021/01/21 12:06:05;;;;;;;4.50;1.40;;;13.50;96.10;;;;;;5034890;28;20497;-81
2021/01/21 12:08:32;;;;;;;6.40;2.13;;;13.50;96.40;;;;;;5035026;28;20505;-81
2021/01/21 12:10:59;;;;;;;4.00;2.00;;;13.50;96.30;;;;;;5037978;28;20458;-79
2021/01/21 12:13:25;;;;;;;10.83;1.50;;;13.60;96.30;;;;;;5036149;28;20488;-80
2021/01/21 12:15:52;;;;;;;3.77;1.37;;;13.60;96.00;;;;;;5044111;28;20420;-80
2021/01/21 12:18:19;;;;;;;5.60;1.40;;;13.60;96.10;;;;;;5055442;28;20480;-80
2021/01/21 12:20:46;;;;;;;6.50;1.50;;;13.70;95.90;;;;;;5054061;28;20454;-80
2021/01/21 12:23:13;;;;;;;8.07;2.17;;;13.70;95.90;;;;;;5054336;28;20937;-80
2021/01/21 12:25:39;;;;;;;8.13;1.90;;;13.90;95.90;;;;;;5046787;28;20450;-80
2021/01/21 12:28:06;;;;;;;8.60;1.77;;;14.00;95.90;;;;;;5036358;28;20452;-80
2021/01/21 12:30:32;;;;;;;6.60;1.83;;;14.10;95.50;;;;;;5034053;28;20429;-80
2021/01/21 12:33:00;;;;;;;4.27;1.27;;;14.10;95.30;;;;;;5034672;28;20478;-80
2021/01/21 12:35:26;;;;;;;5.60;1.33;;;14.10;95.00;;;;;;5035560;28;20469;-80
2021/01/21 12:37:53;;;;;;;10.70;2.07;;;14.00;95.10;;;;;;5014604;28;20463;-80
2021/01/21 12:40:20;;;;;;;5.27;1.90;;;14.10;95.20;;;;;;5018369;28;20481;-80
2021/01/21 12:42:46;;;;;;;4.63;1.53;;;14.00;95.30;;;;;;5019217;28;20514;-81
2021/01/21 12:45:13;;;;;;;3.83;1.50;;;14.10;95.30;;;;;;5025147;28;20948;-80
2021/01/21 12:47:40;;;;;;;3.00;1.30;;;14.20;95.40;;;;;;5056741;28;20489;-80
2021/01/21 12:50:09;;;;;;;2.80;1.20;;;14.00;95.90;;;;;;5056774;28;20434;-80
2021/01/21 12:52:35;;;;;;;4.57;1.33;;;13.90;96.20;;;;;;5057359;28;20839;-81
2021/01/21 12:55:02;;;;;;;3.07;1.10;;;14.00;96.40;;;;;;5053590;28;20511;-80
2021/01/21 12:57:30;;;;;;;3.63;1.17;;;13.90;96.50;;;;;;5034046;28;20477;-81
2021/01/21 12:59:57;;;;;;;2.50;1.07;;;13.90;97.40;;;;;;5037567;28;20926;-80
2021/01/21 13:02:26;;;;;;;3.07;1.10;;;13.80;97.50;;;;;;5038777;28;20462;-80
2021/01/21 13:04:53;;;;;;;2.97;1.30;;;13.70;97.40;;;;;;5039184;28;20432;-80
2021/01/21 13:07:21;;;;;;;3.33;1.20;;;13.70;97.50;;;;;;5043111;28;20472;-81
2021/01/21 13:09:47;;;;;;;4.23;0.90;;;13.80;97.20;;;;;;5038904;28;20457;-81
2021/01/21 13:12:14;;;;;;;2.90;0.90;;;13.70;96.60;;;;;;5037777;28;20540;-80
2021/01/21 13:14:40;;;;;;;4.03;1.23;;;13.60;96.80;;;;;;5037804;28;20583;-80
2021/01/21 13:17:07;;;;;;;3.57;1.20;;;13.70;96.90;;;;;;5055538;28;20447;-80
2021/01/21 13:19:34;;;;;;;4.57;1.30;;;13.80;96.90;;;;;;5057465;28;20424;-81
2021/01/21 13:22:02;;;;;;;4.67;1.80;;;13.70;97.00;;;;;;5057487;28;20492;-80
2021/01/21 13:24:32;;;;;;;4.87;1.33;;;13.70;96.90;;;;;;5057046;28;20445;-80
2021/01/21 13:26:59;;;;;;;6.40;1.40;;;13.80;96.80;;;;;;5054930;28;20502;-80
2021/01/21 13:29:25;;;;;;;4.70;1.50;;;13.70;96.70;;;;;;5056990;28;20453;-81
2021/01/21 13:31:52;;;;;;;3.87;1.50;;;13.70;96.90;;;;;;5057234;28;20493;-80
2021/01/21 13:34:19;;;;;;;2.80;1.10;;;13.60;96.90;;;;;;5056271;28;20981;-81
2021/01/21 13:36:45;;;;;;;3.30;1.27;;;13.50;97.00;;;;;;5042564;28;20498;-80
2021/01/21 13:39:13;;;;;;;3.93;1.23;;;13.50;97.20;;;;;;5038000;28;20446;-80
2021/01/21 13:41:40;;;;;;;4.20;1.63;;;13.40;97.20;;;;;;5037946;28;20429;-80
2021/01/21 13:44:07;;;;;;;4.10;1.10;;;13.40;97.50;;;;;;5037719;28;20432;-77
2021/01/21 13:46:34;;;;;;;3.30;1.30;;;13.50;97.50;;;;;;5037281;28;20504;-74
2021/01/21 13:49:00;;;;;;;4.83;1.37;;;13.50;97.50;;;;;;5031147;28;20448;-74
2021/01/21 13:51:27;;;;;;;4.77;1.53;;;13.50;97.40;;;;;;5030923;28;20432;-74
2021/01/21 13:53:55;;;;;;;4.37;1.30;;;13.50;97.70;;;;;;5032905;28;20424;-81
2021/01/21 13:56:21;;;;;;;5.10;1.83;;;13.50;97.80;;;;;;5035539;28;20517;-80